Time;durP1;ratioP1;P1;durP2;ratioP2;P2;SDS_P1;SDS_P2;PMS_P1;PMS_P2;Temp;Humidity;BMP_temperature;BMP_pressure;BME280_temperature;BME280_humidity;BME280_pressure;Samples;Min_cycle;Max_cycle;Signal;HPM_P1;HPM_P2
2023/04/22 00:16:47;;;;;;;14.00;10.50;;;9.20;86.00;;;;;;4748207;29;20204;-84
2023/04/22 00:51:59;;;;;;;14.80;9.97;;;8.70;87.90;;;;;;4694103;29;20396;-83
2023/04/22 01:16:56;;;;;;;11.03;8.67;;;8.50;88.40;;;;;;4655773;29;21150;-84
2023/04/22 01:37:42;;;;;;;12.37;9.07;;;8.40;89.30;;;;;;4731221;29;20203;-84
2023/04/22 02:13:15;;;;;;;11.53;8.83;;;7.80;93.30;;;;;;4886407;28;20370;-84
2023/04/22 02:43:47;;;;;;;14.00;9.03;;;7.20;95.10;;;;;;4874107;28;20268;-84
2023/04/22 02:48:06;;;;;;;13.07;9.80;;;7.10;95.10;;;;;;4821268;28;21291;-83
2023/04/22 03:09:02;;;;;;;14.93;10.47;;;6.70;99.90;;;;;;4799789;29;20206;-83
2023/04/22 03:34:12;;;;;;;12.80;10.00;;;6.20;99.90;;;;;;4689417;29;20949;-86
2023/04/22 03:59:34;;;;;;;16.40;10.00;;;6.50;99.90;;;;;;4709991;29;20285;-81
2023/04/22 04:19:54;;;;;;;13.67;9.83;;;6.80;99.90;;;;;;4608073;30;20278;-84
2023/04/22 04:50:20;;;;;;;10.50;8.00;;;8.60;90.70;;;;;;4609221;30;21243;-86
2023/04/22 05:10:25;;;;;;;10.67;7.60;;;9.20;86.60;;;;;;4659080;30;20255;-85
2023/04/22 05:36:03;;;;;;;11.03;7.57;;;10.40;84.40;;;;;;4669362;29;20254;-83
2023/04/22 06:11:28;;;;;;;9.53;7.07;;;11.70;79.90;;;;;;4854168;28;20256;-87
2023/04/22 06:31:14;;;;;;;8.37;7.57;;;13.00;77.70;;;;;;4809207;29;20574;-84
2023/04/22 07:07:12;;;;;;;11.13;7.00;;;14.70;72.20;;;;;;4914381;28;20194;-85
2023/04/22 07:37:42;;;;;;;7.97;7.03;;;16.20;56.50;;;;;;4936345;28;20201;-83
2023/04/22 08:02:42;;;;;;;4.60;4.10;;;17.00;51.40;;;;;;4762141;28;20501;-83
2023/04/22 08:18:10;;;;;;;4.23;3.30;;;17.10;44.70;;;;;;4664274;29;20379;-82
2023/04/22 09:28:53;;;;;;;4.70;3.43;;;17.50;42.20;;;;;;4681494;29;20537;-85
2023/04/22 09:53:57;;;;;;;5.87;3.60;;;17.50;42.60;;;;;;4533013;30;20959;-85
2023/04/22 10:14:17;;;;;;;5.33;3.23;;;17.40;41.30;;;;;;4662096;30;20403;-83
2023/04/22 10:40:09;;;;;;;3.43;3.13;;;17.70;41.70;;;;;;4869398;29;20219;-85
2023/04/22 11:05:19;;;;;;;3.03;2.70;;;17.70;40.30;;;;;;4585199;30;20646;-86
2023/04/22 11:35:22;;;;;;;3.83;2.97;;;18.10;40.90;;;;;;4716229;29;20254;-85
2023/04/22 12:06:07;;;;;;;5.27;3.03;;;18.30;40.10;;;;;;4805594;29;20423;-84
2023/04/22 12:31:42;;;;;;;3.87;3.07;;;18.50;39.80;;;;;;4769115;29;20243;-84
2023/04/22 13:01:31;;;;;;;5.17;3.40;;;18.80;39.50;;;;;;4717152;30;20622;-86
2023/04/22 13:22:04;;;;;;;4.83;3.67;;;18.70;39.60;;;;;;4763858;29;20845;-84
2023/04/22 13:42:24;;;;;;;4.67;3.33;;;18.60;40.00;;;;;;4814555;29;20325;-84
2023/04/22 14:03:01;;;;;;;3.83;3.40;;;19.70;39.30;;;;;;4959035;28;20340;-85
2023/04/22 14:33:10;;;;;;;4.20;3.80;;;24.20;37.40;;;;;;4866196;29;20217;-85
2023/04/22 15:03:39;;;;;;;6.10;4.00;;;20.70;38.60;;;;;;4965911;28;20262;-85
2023/04/22 15:29:21;;;;;;;5.30;4.10;;;18.40;39.80;;;;;;4840179;29;20211;-85
2023/04/22 15:33:40;;;;;;;6.33;4.47;;;18.30;40.10;;;;;;4774713;29;20391;-85
2023/04/22 15:54:20;;;;;;;5.20;3.50;;;17.50;41.70;;;;;;4785180;29;20262;-84
2023/04/22 16:14:26;;;;;;;5.07;3.40;;;16.70;44.40;;;;;;4846025;29;20733;-84
2023/04/22 16:40:03;;;;;;;15.43;11.23;;;16.60;46.90;;;;;;4884013;29;20201;-81
2023/04/22 18:06:31;;;;;;;11.73;8.77;;;13.00;82.60;;;;;;4956224;28;20481;-81
2023/04/22 18:36:46;;;;;;;12.00;8.63;;;11.90;85.70;;;;;;4961018;28;20258;-82
2023/04/22 19:07:18;;;;;;;14.30;9.13;;;11.00;91.40;;;;;;4874799;29;20194;-82
2023/04/22 20:08:08;;;;;;;17.83;11.70;;;10.00;99.20;;;;;;4788839;29;20228;-82
2023/04/22 20:33:31;;;;;;;23.10;14.30;;;9.20;99.90;;;;;;4902940;29;20225;-84
2023/04/22 21:03:58;;;;;;;27.63;18.37;;;8.60;99.90;;;;;;4941073;28;20293;-83
2023/04/22 21:34:08;;;;;;;34.27;23.53;;;8.30;99.90;;;;;;4891592;28;20239;-86
2023/04/22 22:04:43;;;;;;;43.07;29.63;;;8.10;99.90;;;;;;4986294;28;20236;-82
2023/04/22 22:24:57;;;;;;;42.60;28.27;;;7.60;99.90;;;;;;4834479;29;20220;-83
2023/04/22 22:45:24;;;;;;;41.53;30.43;;;7.40;99.90;;;;;;4810154;29;20297;-84
2023/04/22 23:10:47;;;;;;;49.07;32.73;;;7.40;99.90;;;;;;4742744;29;20222;-81
2023/04/22 23:36:05;;;;;;;47.93;33.97;;;6.90;99.90;;;;;;4821674;29;20532;-83
